sensor_id;sensor_type;location;lat;lon;timestamp;P1;durP1;ratioP1;P2;durP2;ratioP2
21480;SDS011;10902;48.158;8.634;2023-03-03T00:00:05;125.45;;;52.92;;
21480;SDS011;10902;48.158;8.634;2023-03-03T00:02:32;127.88;;;56.38;;
21480;SDS011;10902;48.158;8.634;2023-03-03T00:04:57;120.82;;;53.78;;
21480;SDS011;10902;48.158;8.634;2023-03-03T00:07:23;126.90;;;55.50;;
21480;SDS011;10902;48.158;8.634;2023-03-03T00:09:49;112.32;;;51.70;;
21480;SDS011;10902;48.158;8.634;2023-03-03T00:12:26;125.63;;;53.17;;
21480;SDS011;10902;48.158;8.634;2023-03-03T00:14:53;120.72;;;51.33;;
21480;SDS011;10902;48.158;8.634;2023-03-03T00:17:21;116.97;;;49.55;;
21480;SDS011;10902;48.158;8.634;2023-03-03T00:19:49;110.68;;;47.25;;
21480;SDS011;10902;48.158;8.634;2023-03-03T00:24:47;118.85;;;48.28;;
21480;SDS011;10902;48.158;8.634;2023-03-03T00:27:21;118.75;;;48.85;;
21480;SDS011;10902;48.158;8.634;2023-03-03T00:29:58;123.22;;;49.03;;
21480;SDS011;10902;48.158;8.634;2023-03-03T00:34:53;115.72;;;47.55;;
21480;SDS011;10902;48.158;8.634;2023-03-03T00:40:19;123.70;;;49.25;;
21480;SDS011;10902;48.158;8.634;2023-03-03T00:42:48;124.65;;;48.67;;
21480;SDS011;10902;48.158;8.634;2023-03-03T00:45:26;126.35;;;50.90;;
21480;SDS011;10902;48.158;8.634;2023-03-03T00:47:53;129.27;;;51.92;;
21480;SDS011;10902;48.158;8.634;2023-03-03T00:53:03;139.90;;;55.85;;
21480;SDS011;10902;48.158;8.634;2023-03-03T00:55:41;144.55;;;55.72;;
21480;SDS011;10902;48.158;8.634;2023-03-03T00:58:07;152.88;;;59.60;;
21480;SDS011;10902;48.158;8.634;2023-03-03T01:00:33;144.00;;;59.33;;
21480;SDS011;10902;48.158;8.634;2023-03-03T01:03:01;129.95;;;56.72;;
21480;SDS011;10902;48.158;8.634;2023-03-03T01:05:29;156.73;;;62.33;;
21480;SDS011;10902;48.158;8.634;2023-03-03T01:07:55;154.90;;;61.90;;
21480;SDS011;10902;48.158;8.634;2023-03-03T01:10:20;150.98;;;63.33;;
21480;SDS011;10902;48.158;8.634;2023-03-03T01:12:46;148.00;;;57.22;;
21480;SDS011;10902;48.158;8.634;2023-03-03T01:15:12;124.68;;;52.22;;
21480;SDS011;10902;48.158;8.634;2023-03-03T01:17:39;128.25;;;53.30;;
21480;SDS011;10902;48.158;8.634;2023-03-03T01:20:06;140.52;;;55.80;;
21480;SDS011;10902;48.158;8.634;2023-03-03T01:22:33;141.63;;;57.60;;
21480;SDS011;10902;48.158;8.634;2023-03-03T01:24:58;151.63;;;59.65;;
21480;SDS011;10902;48.158;8.634;2023-03-03T01:27:24;143.52;;;57.83;;
21480;SDS011;10902;48.158;8.634;2023-03-03T01:29:49;157.02;;;59.55;;
21480;SDS011;10902;48.158;8.634;2023-03-03T01:32:15;167.27;;;62.30;;
21480;SDS011;10902;48.158;8.634;2023-03-03T01:34:41;160.10;;;61.20;;
21480;SDS011;10902;48.158;8.634;2023-03-03T01:37:06;150.02;;;58.95;;
21480;SDS011;10902;48.158;8.634;2023-03-03T01:39:32;139.80;;;56.83;;
21480;SDS011;10902;48.158;8.634;2023-03-03T01:41:57;149.02;;;56.42;;
21480;SDS011;10902;48.158;8.634;2023-03-03T01:44:23;143.15;;;54.70;;
21480;SDS011;10902;48.158;8.634;2023-03-03T01:49:48;131.73;;;50.35;;
21480;SDS011;10902;48.158;8.634;2023-03-03T01:52:36;144.10;;;53.08;;
21480;SDS011;10902;48.158;8.634;2023-03-03T01:55:12;145.52;;;54.33;;
21480;SDS011;10902;48.158;8.634;2023-03-03T01:57:46;132.32;;;48.80;;
21480;SDS011;10902;48.158;8.634;2023-03-03T02:00:20;148.10;;;51.92;;
21480;SDS011;10902;48.158;8.634;2023-03-03T02:02:46;145.30;;;53.63;;
21480;SDS011;10902;48.158;8.634;2023-03-03T02:05:12;141.90;;;52.97;;
21480;SDS011;10902;48.158;8.634;2023-03-03T02:07:40;154.68;;;55.17;;
21480;SDS011;10902;48.158;8.634;2023-03-03T02:10:08;149.75;;;53.78;;
21480;SDS011;10902;48.158;8.634;2023-03-03T02:12:37;156.50;;;55.22;;
21480;SDS011;10902;48.158;8.634;2023-03-03T02:15:19;164.18;;;55.95;;
21480;SDS011;10902;48.158;8.634;2023-03-03T02:18:33;152.57;;;54.05;;
21480;SDS011;10902;48.158;8.634;2023-03-03T02:28:22;161.13;;;57.88;;
21480;SDS011;10902;48.158;8.634;2023-03-03T02:30:51;175.80;;;60.33;;
21480;SDS011;10902;48.158;8.634;2023-03-03T02:33:19;167.85;;;56.80;;
21480;SDS011;10902;48.158;8.634;2023-03-03T02:35:45;167.35;;;59.22;;
21480;SDS011;10902;48.158;8.634;2023-03-03T02:38:16;184.40;;;62.33;;
21480;SDS011;10902;48.158;8.634;2023-03-03T02:40:55;180.23;;;60.97;;
21480;SDS011;10902;48.158;8.634;2023-03-03T02:43:52;162.35;;;56.45;;
21480;SDS011;10902;48.158;8.634;2023-03-03T02:46:30;167.55;;;57.33;;
21480;SDS011;10902;48.158;8.634;2023-03-03T02:48:58;186.35;;;63.13;;
21480;SDS011;10902;48.158;8.634;2023-03-03T02:51:23;197.90;;;69.38;;
21480;SDS011;10902;48.158;8.634;2023-03-03T02:53:49;188.32;;;62.15;;
21480;SDS011;10902;48.158;8.634;2023-03-03T02:56:15;166.32;;;61.45;;
21480;SDS011;10902;48.158;8.634;2023-03-03T02:58:40;186.82;;;64.70;;
21480;SDS011;10902;48.158;8.634;2023-03-03T03:01:06;180.15;;;61.55;;
21480;SDS011;10902;48.158;8.634;2023-03-03T03:03:32;183.13;;;65.07;;
21480;SDS011;10902;48.158;8.634;2023-03-03T03:05:57;205.18;;;67.70;;
21480;SDS011;10902;48.158;8.634;2023-03-03T03:08:23;182.73;;;63.92;;
21480;SDS011;10902;48.158;8.634;2023-03-03T03:10:49;189.60;;;67.25;;
21480;SDS011;10902;48.158;8.634;2023-03-03T03:13:15;214.48;;;71.13;;
21480;SDS011;10902;48.158;8.634;2023-03-03T03:15:41;191.55;;;68.22;;
21480;SDS011;10902;48.158;8.634;2023-03-03T03:18:09;187.18;;;66.97;;
21480;SDS011;10902;48.158;8.634;2023-03-03T03:20:35;184.43;;;67.28;;
21480;SDS011;10902;48.158;8.634;2023-03-03T03:23:01;195.25;;;69.25;;
21480;SDS011;10902;48.158;8.634;2023-03-03T03:25:27;178.05;;;64.90;;
21480;SDS011;10902;48.158;8.634;2023-03-03T03:27:53;193.90;;;66.22;;
21480;SDS011;10902;48.158;8.634;2023-03-03T03:30:18;186.95;;;66.85;;
21480;SDS011;10902;48.158;8.634;2023-03-03T03:32:44;180.30;;;66.57;;
21480;SDS011;10902;48.158;8.634;2023-03-03T03:35:10;183.68;;;65.20;;
21480;SDS011;10902;48.158;8.634;2023-03-03T03:37:37;194.25;;;67.93;;
21480;SDS011;10902;48.158;8.634;2023-03-03T03:40:03;197.23;;;73.50;;
21480;SDS011;10902;48.158;8.634;2023-03-03T03:42:29;188.15;;;68.75;;
21480;SDS011;10902;48.158;8.634;2023-03-03T03:44:55;193.07;;;68.10;;
21480;SDS011;10902;48.158;8.634;2023-03-03T03:47:20;190.18;;;66.07;;
21480;SDS011;10902;48.158;8.634;2023-03-03T03:49:46;185.57;;;66.10;;
21480;SDS011;10902;48.158;8.634;2023-03-03T03:52:11;177.77;;;62.72;;
21480;SDS011;10902;48.158;8.634;2023-03-03T03:54:37;194.05;;;64.40;;
21480;SDS011;10902;48.158;8.634;2023-03-03T03:57:03;203.45;;;67.93;;
21480;SDS011;10902;48.158;8.634;2023-03-03T03:59:29;162.82;;;58.90;;
21480;SDS011;10902;48.158;8.634;2023-03-03T04:01:55;173.70;;;60.35;;
21480;SDS011;10902;48.158;8.634;2023-03-03T04:04:21;183.10;;;60.65;;
21480;SDS011;10902;48.158;8.634;2023-03-03T04:06:46;174.80;;;61.78;;
21480;SDS011;10902;48.158;8.634;2023-03-03T04:09:13;523.22;;;91.45;;
21480;SDS011;10902;48.158;8.634;2023-03-03T04:11:39;793.55;;;119.57;;
21480;SDS011;10902;48.158;8.634;2023-03-03T04:14:04;614.38;;;98.82;;
21480;SDS011;10902;48.158;8.634;2023-03-03T04:16:30;747.20;;;118.15;;
21480;SDS011;10902;48.158;8.634;2023-03-03T04:18:56;276.65;;;78.43;;
21480;SDS011;10902;48.158;8.634;2023-03-03T04:21:22;233.07;;;74.03;;
21480;SDS011;10902;48.158;8.634;2023-03-03T04:23:47;214.88;;;71.78;;
21480;SDS011;10902;48.158;8.634;2023-03-03T04:26:13;222.23;;;71.53;;
21480;SDS011;10902;48.158;8.634;2023-03-03T04:28:38;223.65;;;70.65;;
21480;SDS011;10902;48.158;8.634;2023-03-03T04:31:04;210.00;;;68.18;;
21480;SDS011;10902;48.158;8.634;2023-03-03T04:33:29;195.88;;;61.92;;
21480;SDS011;10902;48.158;8.634;2023-03-03T04:35:55;194.75;;;63.08;;
21480;SDS011;10902;48.158;8.634;2023-03-03T04:38:20;209.50;;;65.50;;
21480;SDS011;10902;48.158;8.634;2023-03-03T04:40:46;207.63;;;66.05;;
21480;SDS011;10902;48.158;8.634;2023-03-03T04:43:13;195.98;;;62.53;;
21480;SDS011;10902;48.158;8.634;2023-03-03T04:45:39;183.23;;;61.00;;
21480;SDS011;10902;48.158;8.634;2023-03-03T04:48:04;162.65;;;59.67;;
21480;SDS011;10902;48.158;8.634;2023-03-03T04:50:30;164.07;;;60.03;;
21480;SDS011;10902;48.158;8.634;2023-03-03T04:52:56;175.00;;;59.22;;
21480;SDS011;10902;48.158;8.634;2023-03-03T04:55:21;166.35;;;60.88;;
21480;SDS011;10902;48.158;8.634;2023-03-03T04:57:47;164.50;;;58.55;;
21480;SDS011;10902;48.158;8.634;2023-03-03T05:00:13;164.50;;;59.05;;
21480;SDS011;10902;48.158;8.634;2023-03-03T05:02:39;155.18;;;57.42;;
21480;SDS011;10902;48.158;8.634;2023-03-03T05:05:05;181.75;;;63.13;;
21480;SDS011;10902;48.158;8.634;2023-03-03T05:07:33;167.65;;;61.15;;
21480;SDS011;10902;48.158;8.634;2023-03-03T05:09:59;194.32;;;67.07;;
21480;SDS011;10902;48.158;8.634;2023-03-03T05:12:25;189.82;;;64.28;;
21480;SDS011;10902;48.158;8.634;2023-03-03T05:14:51;169.30;;;64.15;;
21480;SDS011;10902;48.158;8.634;2023-03-03T05:17:16;176.48;;;65.63;;
21480;SDS011;10902;48.158;8.634;2023-03-03T05:19:42;187.55;;;68.38;;
21480;SDS011;10902;48.158;8.634;2023-03-03T05:22:08;175.25;;;65.00;;
21480;SDS011;10902;48.158;8.634;2023-03-03T05:24:34;172.32;;;61.97;;
21480;SDS011;10902;48.158;8.634;2023-03-03T05:27:00;164.13;;;59.88;;
21480;SDS011;10902;48.158;8.634;2023-03-03T05:29:25;148.32;;;58.30;;
21480;SDS011;10902;48.158;8.634;2023-03-03T05:31:52;172.35;;;58.72;;
21480;SDS011;10902;48.158;8.634;2023-03-03T05:34:18;150.65;;;57.75;;
21480;SDS011;10902;48.158;8.634;2023-03-03T05:36:43;131.82;;;53.55;;
21480;SDS011;10902;48.158;8.634;2023-03-03T05:39:09;136.50;;;55.30;;
21480;SDS011;10902;48.158;8.634;2023-03-03T05:41:34;133.60;;;55.08;;
21480;SDS011;10902;48.158;8.634;2023-03-03T05:44:01;130.82;;;55.63;;
21480;SDS011;10902;48.158;8.634;2023-03-03T05:46:27;122.55;;;53.25;;
21480;SDS011;10902;48.158;8.634;2023-03-03T05:48:53;116.90;;;50.85;;
21480;SDS011;10902;48.158;8.634;2023-03-03T05:51:18;119.78;;;51.40;;
21480;SDS011;10902;48.158;8.634;2023-03-03T05:53:44;113.38;;;50.30;;
21480;SDS011;10902;48.158;8.634;2023-03-03T05:56:09;123.20;;;52.05;;
21480;SDS011;10902;48.158;8.634;2023-03-03T05:58:35;114.10;;;50.28;;
21480;SDS011;10902;48.158;8.634;2023-03-03T06:01:01;116.28;;;50.92;;
21480;SDS011;10902;48.158;8.634;2023-03-03T06:03:26;113.25;;;46.97;;
21480;SDS011;10902;48.158;8.634;2023-03-03T06:05:52;116.13;;;51.65;;
21480;SDS011;10902;48.158;8.634;2023-03-03T06:08:18;113.45;;;50.97;;
21480;SDS011;10902;48.158;8.634;2023-03-03T06:10:43;118.85;;;52.60;;
21480;SDS011;10902;48.158;8.634;2023-03-03T06:13:09;114.22;;;51.53;;
21480;SDS011;10902;48.158;8.634;2023-03-03T06:15:34;110.72;;;49.63;;
21480;SDS011;10902;48.158;8.634;2023-03-03T06:18:00;108.05;;;48.53;;
21480;SDS011;10902;48.158;8.634;2023-03-03T06:20:25;109.72;;;49.28;;
21480;SDS011;10902;48.158;8.634;2023-03-03T06:22:51;106.13;;;46.83;;
21480;SDS011;10902;48.158;8.634;2023-03-03T06:25:17;114.18;;;50.88;;
21480;SDS011;10902;48.158;8.634;2023-03-03T06:27:42;110.05;;;48.35;;
21480;SDS011;10902;48.158;8.634;2023-03-03T06:30:08;98.72;;;47.05;;
21480;SDS011;10902;48.158;8.634;2023-03-03T06:32:34;101.13;;;47.90;;
21480;SDS011;10902;48.158;8.634;2023-03-03T06:35:00;108.50;;;48.85;;
21480;SDS011;10902;48.158;8.634;2023-03-03T06:37:25;100.80;;;47.42;;
21480;SDS011;10902;48.158;8.634;2023-03-03T06:39:51;106.53;;;49.05;;
21480;SDS011;10902;48.158;8.634;2023-03-03T06:42:17;104.80;;;47.45;;
21480;SDS011;10902;48.158;8.634;2023-03-03T06:44:43;100.72;;;45.97;;
21480;SDS011;10902;48.158;8.634;2023-03-03T06:47:09;104.25;;;48.17;;
21480;SDS011;10902;48.158;8.634;2023-03-03T06:49:35;92.68;;;45.58;;
21480;SDS011;10902;48.158;8.634;2023-03-03T06:52:04;101.45;;;48.65;;
21480;SDS011;10902;48.158;8.634;2023-03-03T06:54:36;103.05;;;48.60;;
21480;SDS011;10902;48.158;8.634;2023-03-03T06:57:05;108.57;;;50.05;;
21480;SDS011;10902;48.158;8.634;2023-03-03T06:59:47;103.32;;;46.92;;
21480;SDS011;10902;48.158;8.634;2023-03-03T07:02:16;94.88;;;45.85;;
21480;SDS011;10902;48.158;8.634;2023-03-03T07:04:43;99.45;;;46.13;;
21480;SDS011;10902;48.158;8.634;2023-03-03T07:07:15;98.07;;;46.30;;
21480;SDS011;10902;48.158;8.634;2023-03-03T07:09:42;87.30;;;42.60;;
21480;SDS011;10902;48.158;8.634;2023-03-03T07:12:10;90.70;;;45.97;;
21480;SDS011;10902;48.158;8.634;2023-03-03T07:14:42;92.93;;;46.78;;
21480;SDS011;10902;48.158;8.634;2023-03-03T07:17:18;93.72;;;46.33;;
21480;SDS011;10902;48.158;8.634;2023-03-03T07:19:45;97.05;;;45.83;;
21480;SDS011;10902;48.158;8.634;2023-03-03T07:22:15;84.63;;;43.08;;
21480;SDS011;10902;48.158;8.634;2023-03-03T07:24:43;79.82;;;40.63;;
21480;SDS011;10902;48.158;8.634;2023-03-03T07:27:24;79.15;;;40.53;;
21480;SDS011;10902;48.158;8.634;2023-03-03T07:29:52;79.72;;;40.42;;
21480;SDS011;10902;48.158;8.634;2023-03-03T07:32:37;81.65;;;42.95;;
21480;SDS011;10902;48.158;8.634;2023-03-03T07:35:51;70.25;;;39.40;;
21480;SDS011;10902;48.158;8.634;2023-03-03T07:41:04;77.88;;;40.13;;
21480;SDS011;10902;48.158;8.634;2023-03-03T07:43:54;75.45;;;38.70;;
21480;SDS011;10902;48.158;8.634;2023-03-03T07:48:49;78.18;;;39.55;;
21480;SDS011;10902;48.158;8.634;2023-03-03T07:51:24;71.45;;;39.95;;
21480;SDS011;10902;48.158;8.634;2023-03-03T07:54:13;76.20;;;40.45;;
21480;SDS011;10902;48.158;8.634;2023-03-03T07:57:11;69.82;;;38.78;;
21480;SDS011;10902;48.158;8.634;2023-03-03T08:05:30;85.78;;;46.75;;
21480;SDS011;10902;48.158;8.634;2023-03-03T08:08:02;85.68;;;49.63;;
21480;SDS011;10902;48.158;8.634;2023-03-03T08:10:54;83.55;;;48.63;;
21480;SDS011;10902;48.158;8.634;2023-03-03T08:15:54;76.75;;;45.95;;
21480;SDS011;10902;48.158;8.634;2023-03-03T08:20:57;66.93;;;39.83;;
21480;SDS011;10902;48.158;8.634;2023-03-03T08:23:29;70.35;;;42.60;;
21480;SDS011;10902;48.158;8.634;2023-03-03T08:25:55;61.33;;;37.17;;
21480;SDS011;10902;48.158;8.634;2023-03-03T08:28:20;65.80;;;38.88;;
21480;SDS011;10902;48.158;8.634;2023-03-03T08:30:47;65.22;;;40.55;;
21480;SDS011;10902;48.158;8.634;2023-03-03T08:33:13;67.05;;;41.17;;
21480;SDS011;10902;48.158;8.634;2023-03-03T08:35:39;65.70;;;40.03;;
21480;SDS011;10902;48.158;8.634;2023-03-03T08:38:05;65.50;;;39.70;;
21480;SDS011;10902;48.158;8.634;2023-03-03T08:40:32;67.82;;;39.75;;
21480;SDS011;10902;48.158;8.634;2023-03-03T08:42:58;62.28;;;36.45;;
21480;SDS011;10902;48.158;8.634;2023-03-03T08:45:23;65.47;;;38.97;;
21480;SDS011;10902;48.158;8.634;2023-03-03T08:47:49;59.67;;;36.50;;
21480;SDS011;10902;48.158;8.634;2023-03-03T08:50:15;58.63;;;34.85;;
21480;SDS011;10902;48.158;8.634;2023-03-03T08:52:41;60.30;;;36.40;;
21480;SDS011;10902;48.158;8.634;2023-03-03T08:55:07;58.95;;;35.50;;
21480;SDS011;10902;48.158;8.634;2023-03-03T08:57:33;63.28;;;38.00;;
21480;SDS011;10902;48.158;8.634;2023-03-03T08:59:58;63.47;;;37.10;;
21480;SDS011;10902;48.158;8.634;2023-03-03T09:02:24;62.97;;;35.40;;
21480;SDS011;10902;48.158;8.634;2023-03-03T09:04:49;59.00;;;34.97;;
21480;SDS011;10902;48.158;8.634;2023-03-03T09:07:15;55.83;;;34.05;;
21480;SDS011;10902;48.158;8.634;2023-03-03T09:09:41;52.97;;;32.97;;
21480;SDS011;10902;48.158;8.634;2023-03-03T09:12:21;53.63;;;33.30;;
21480;SDS011;10902;48.158;8.634;2023-03-03T09:14:53;54.65;;;33.15;;
21480;SDS011;10902;48.158;8.634;2023-03-03T09:17:24;57.65;;;34.25;;
21480;SDS011;10902;48.158;8.634;2023-03-03T09:19:55;54.20;;;33.53;;
21480;SDS011;10902;48.158;8.634;2023-03-03T09:22:25;58.35;;;34.50;;
21480;SDS011;10902;48.158;8.634;2023-03-03T09:24:52;52.53;;;33.13;;
21480;SDS011;10902;48.158;8.634;2023-03-03T09:27:27;54.22;;;32.90;;
21480;SDS011;10902;48.158;8.634;2023-03-03T09:30:46;56.75;;;34.33;;
21480;SDS011;10902;48.158;8.634;2023-03-03T09:32:55;52.45;;;32.20;;
21480;SDS011;10902;48.158;8.634;2023-03-03T09:35:35;51.90;;;34.50;;
21480;SDS011;10902;48.158;8.634;2023-03-03T09:38:46;55.28;;;35.05;;
21480;SDS011;10902;48.158;8.634;2023-03-03T09:46:22;57.05;;;34.70;;
21480;SDS011;10902;48.158;8.634;2023-03-03T09:54:58;54.17;;;34.95;;
21480;SDS011;10902;48.158;8.634;2023-03-03T10:08:17;50.60;;;34.05;;
21480;SDS011;10902;48.158;8.634;2023-03-03T10:13:41;49.47;;;31.70;;
21480;SDS011;10902;48.158;8.634;2023-03-03T10:22:16;51.45;;;32.50;;
21480;SDS011;10902;48.158;8.634;2023-03-03T10:30:52;57.10;;;35.42;;
21480;SDS011;10902;48.158;8.634;2023-03-03T10:33:37;55.78;;;36.08;;
21480;SDS011;10902;48.158;8.634;2023-03-03T10:39:09;63.97;;;37.10;;
21480;SDS011;10902;48.158;8.634;2023-03-03T10:44:38;58.45;;;37.13;;
21480;SDS011;10902;48.158;8.634;2023-03-03T11:01:07;46.15;;;30.13;;
21480;SDS011;10902;48.158;8.634;2023-03-03T11:03:49;45.78;;;29.80;;
21480;SDS011;10902;48.158;8.634;2023-03-03T11:06:25;47.42;;;28.98;;
21480;SDS011;10902;48.158;8.634;2023-03-03T11:18:02;47.90;;;30.77;;
21480;SDS011;10902;48.158;8.634;2023-03-03T11:21:06;47.13;;;31.80;;
21480;SDS011;10902;48.158;8.634;2023-03-03T11:31:59;46.22;;;31.25;;
21480;SDS011;10902;48.158;8.634;2023-03-03T11:34:36;50.83;;;31.55;;
21480;SDS011;10902;48.158;8.634;2023-03-03T11:40:18;46.65;;;30.33;;
21480;SDS011;10902;48.158;8.634;2023-03-03T11:42:54;48.35;;;31.00;;
21480;SDS011;10902;48.158;8.634;2023-03-03T11:45:40;48.83;;;31.25;;
21480;SDS011;10902;48.158;8.634;2023-03-03T11:50:44;48.22;;;30.77;;
21480;SDS011;10902;48.158;8.634;2023-03-03T11:56:23;47.83;;;31.63;;
21480;SDS011;10902;48.158;8.634;2023-03-03T12:04:48;49.33;;;31.42;;
21480;SDS011;10902;48.158;8.634;2023-03-03T12:07:30;46.45;;;31.70;;
21480;SDS011;10902;48.158;8.634;2023-03-03T12:13:11;46.95;;;30.10;;
21480;SDS011;10902;48.158;8.634;2023-03-03T12:15:49;46.30;;;30.02;;
21480;SDS011;10902;48.158;8.634;2023-03-03T12:26:29;42.47;;;28.40;;
21480;SDS011;10902;48.158;8.634;2023-03-03T12:29:14;44.38;;;29.23;;
21480;SDS011;10902;48.158;8.634;2023-03-03T12:34:50;47.20;;;29.25;;
21480;SDS011;10902;48.158;8.634;2023-03-03T12:40:23;48.10;;;31.38;;
21480;SDS011;10902;48.158;8.634;2023-03-03T12:46:16;42.97;;;27.45;;
21480;SDS011;10902;48.158;8.634;2023-03-03T12:48:58;45.50;;;28.55;;
21480;SDS011;10902;48.158;8.634;2023-03-03T12:51:27;42.10;;;28.58;;
21480;SDS011;10902;48.158;8.634;2023-03-03T12:54:17;39.85;;;27.75;;
21480;SDS011;10902;48.158;8.634;2023-03-03T12:56:57;40.75;;;28.30;;
21480;SDS011;10902;48.158;8.634;2023-03-03T13:05:15;42.25;;;28.88;;
21480;SDS011;10902;48.158;8.634;2023-03-03T13:08:03;41.35;;;27.98;;
21480;SDS011;10902;48.158;8.634;2023-03-03T13:14:04;43.67;;;27.50;;
21480;SDS011;10902;48.158;8.634;2023-03-03T13:16:42;42.00;;;27.70;;
21480;SDS011;10902;48.158;8.634;2023-03-03T13:19:31;44.25;;;29.35;;
21480;SDS011;10902;48.158;8.634;2023-03-03T13:27:32;47.30;;;29.88;;
21480;SDS011;10902;48.158;8.634;2023-03-03T13:30:19;41.30;;;28.35;;
21480;SDS011;10902;48.158;8.634;2023-03-03T13:35:40;46.00;;;28.85;;
21480;SDS011;10902;48.158;8.634;2023-03-03T13:38:23;45.83;;;28.33;;
21480;SDS011;10902;48.158;8.634;2023-03-03T13:41:38;43.92;;;28.00;;
21480;SDS011;10902;48.158;8.634;2023-03-03T13:46:43;40.67;;;27.05;;
21480;SDS011;10902;48.158;8.634;2023-03-03T13:52:26;42.58;;;27.63;;
21480;SDS011;10902;48.158;8.634;2023-03-03T13:55:06;42.97;;;28.60;;
21480;SDS011;10902;48.158;8.634;2023-03-03T13:58:24;44.78;;;27.77;;
21480;SDS011;10902;48.158;8.634;2023-03-03T14:06:18;38.35;;;26.92;;
21480;SDS011;10902;48.158;8.634;2023-03-03T14:14:43;43.30;;;28.42;;
21480;SDS011;10902;48.158;8.634;2023-03-03T14:17:33;40.38;;;27.50;;
21480;SDS011;10902;48.158;8.634;2023-03-03T14:20:17;43.15;;;26.65;;
21480;SDS011;10902;48.158;8.634;2023-03-03T14:23:02;42.90;;;28.05;;
21480;SDS011;10902;48.158;8.634;2023-03-03T14:28:36;43.92;;;26.95;;
21480;SDS011;10902;48.158;8.634;2023-03-03T14:36:47;42.30;;;26.25;;
21480;SDS011;10902;48.158;8.634;2023-03-03T14:42:11;42.00;;;26.70;;
21480;SDS011;10902;48.158;8.634;2023-03-03T14:44:57;40.65;;;26.58;;
21480;SDS011;10902;48.158;8.634;2023-03-03T14:47:23;38.95;;;26.17;;
21480;SDS011;10902;48.158;8.634;2023-03-03T14:49:54;39.83;;;26.35;;
21480;SDS011;10902;48.158;8.634;2023-03-03T14:52:25;38.85;;;25.90;;
21480;SDS011;10902;48.158;8.634;2023-03-03T14:54:54;39.78;;;26.85;;
21480;SDS011;10902;48.158;8.634;2023-03-03T15:00:00;39.22;;;26.77;;
21480;SDS011;10902;48.158;8.634;2023-03-03T15:02:33;39.53;;;27.60;;
21480;SDS011;10902;48.158;8.634;2023-03-03T15:05:24;38.38;;;27.00;;
21480;SDS011;10902;48.158;8.634;2023-03-03T15:10:34;37.35;;;25.98;;
21480;SDS011;10902;48.158;8.634;2023-03-03T15:16:16;41.75;;;26.92;;
21480;SDS011;10902;48.158;8.634;2023-03-03T15:18:54;38.67;;;25.55;;
21480;SDS011;10902;48.158;8.634;2023-03-03T15:24:28;43.42;;;26.63;;
21480;SDS011;10902;48.158;8.634;2023-03-03T15:27:17;40.70;;;25.58;;
21480;SDS011;10902;48.158;8.634;2023-03-03T15:29:58;39.30;;;25.00;;
21480;SDS011;10902;48.158;8.634;2023-03-03T15:35:36;36.85;;;24.80;;
21480;SDS011;10902;48.158;8.634;2023-03-03T15:40:45;41.17;;;27.08;;
21480;SDS011;10902;48.158;8.634;2023-03-03T15:43:20;41.00;;;26.77;;
21480;SDS011;10902;48.158;8.634;2023-03-03T15:45:57;41.70;;;27.08;;
21480;SDS011;10902;48.158;8.634;2023-03-03T15:48:52;41.05;;;26.35;;
21480;SDS011;10902;48.158;8.634;2023-03-03T15:54:27;41.05;;;26.67;;
21480;SDS011;10902;48.158;8.634;2023-03-03T15:57:03;40.00;;;26.55;;
21480;SDS011;10902;48.158;8.634;2023-03-03T16:02:55;44.00;;;28.20;;
21480;SDS011;10902;48.158;8.634;2023-03-03T16:05:33;41.25;;;26.52;;
21480;SDS011;10902;48.158;8.634;2023-03-03T16:08:25;41.97;;;27.60;;
21480;SDS011;10902;48.158;8.634;2023-03-03T16:13:44;43.45;;;28.33;;
21480;SDS011;10902;48.158;8.634;2023-03-03T16:16:31;44.90;;;29.58;;
21480;SDS011;10902;48.158;8.634;2023-03-03T16:33:40;47.55;;;33.03;;
21480;SDS011;10902;48.158;8.634;2023-03-03T16:52:16;48.90;;;32.28;;
21480;SDS011;10902;48.158;8.634;2023-03-03T16:55:04;46.50;;;31.40;;
21480;SDS011;10902;48.158;8.634;2023-03-03T16:58:01;49.85;;;31.50;;
21480;SDS011;10902;48.158;8.634;2023-03-03T17:00:49;49.20;;;30.63;;
21480;SDS011;10902;48.158;8.634;2023-03-03T17:03:34;49.35;;;32.30;;
21480;SDS011;10902;48.158;8.634;2023-03-03T17:09:21;51.42;;;30.63;;
21480;SDS011;10902;48.158;8.634;2023-03-03T17:11:51;49.08;;;31.55;;
21480;SDS011;10902;48.158;8.634;2023-03-03T17:20:47;49.60;;;30.85;;
21480;SDS011;10902;48.158;8.634;2023-03-03T17:31:25;48.17;;;30.10;;
21480;SDS011;10902;48.158;8.634;2023-03-03T17:34:25;45.63;;;30.33;;
21480;SDS011;10902;48.158;8.634;2023-03-03T17:37:33;47.42;;;30.50;;
21480;SDS011;10902;48.158;8.634;2023-03-03T17:45:34;48.15;;;29.75;;
21480;SDS011;10902;48.158;8.634;2023-03-03T17:53:39;50.95;;;31.65;;
21480;SDS011;10902;48.158;8.634;2023-03-03T17:58:53;46.03;;;29.90;;
21480;SDS011;10902;48.158;8.634;2023-03-03T18:21:36;59.80;;;38.67;;
21480;SDS011;10902;48.158;8.634;2023-03-03T18:26:49;57.55;;;36.22;;
21480;SDS011;10902;48.158;8.634;2023-03-03T18:34:26;59.33;;;38.28;;
21480;SDS011;10902;48.158;8.634;2023-03-03T18:39:36;60.72;;;39.03;;
21480;SDS011;10902;48.158;8.634;2023-03-03T18:44:35;56.22;;;35.83;;
21480;SDS011;10902;48.158;8.634;2023-03-03T18:47:01;57.90;;;38.17;;
21480;SDS011;10902;48.158;8.634;2023-03-03T18:52:29;64.80;;;40.45;;
21480;SDS011;10902;48.158;8.634;2023-03-03T18:57:33;63.95;;;38.72;;
21480;SDS011;10902;48.158;8.634;2023-03-03T19:00:32;47.63;;;30.60;;
21480;SDS011;10902;48.158;8.634;2023-03-03T19:02:53;45.58;;;29.38;;
21480;SDS011;10902;48.158;8.634;2023-03-03T19:05:21;51.78;;;31.70;;
21480;SDS011;10902;48.158;8.634;2023-03-03T19:07:56;47.25;;;29.45;;
21480;SDS011;10902;48.158;8.634;2023-03-03T19:16:03;48.95;;;31.27;;
21480;SDS011;10902;48.158;8.634;2023-03-03T19:18:34;52.83;;;32.85;;
21480;SDS011;10902;48.158;8.634;2023-03-03T19:21:06;52.03;;;30.30;;
21480;SDS011;10902;48.158;8.634;2023-03-03T19:23:55;50.00;;;30.48;;
21480;SDS011;10902;48.158;8.634;2023-03-03T19:26:46;54.47;;;30.95;;
21480;SDS011;10902;48.158;8.634;2023-03-03T19:35:18;46.90;;;27.88;;
21480;SDS011;10902;48.158;8.634;2023-03-03T19:38:17;48.83;;;30.52;;
21480;SDS011;10902;48.158;8.634;2023-03-03T19:44:01;49.03;;;28.85;;
21480;SDS011;10902;48.158;8.634;2023-03-03T19:49:21;53.72;;;31.30;;
21480;SDS011;10902;48.158;8.634;2023-03-03T19:52:07;54.53;;;32.67;;
21480;SDS011;10902;48.158;8.634;2023-03-03T20:06:20;61.30;;;37.85;;
21480;SDS011;10902;48.158;8.634;2023-03-03T20:09:13;64.90;;;38.33;;
21480;SDS011;10902;48.158;8.634;2023-03-03T20:12:05;58.42;;;35.05;;
21480;SDS011;10902;48.158;8.634;2023-03-03T20:37:35;60.17;;;37.13;;
21480;SDS011;10902;48.158;8.634;2023-03-03T20:40:27;56.80;;;33.35;;
21480;SDS011;10902;48.158;8.634;2023-03-03T20:43:21;54.33;;;33.85;;
21480;SDS011;10902;48.158;8.634;2023-03-03T20:51:42;59.90;;;32.63;;
21480;SDS011;10902;48.158;8.634;2023-03-03T20:59:42;53.10;;;33.33;;
21480;SDS011;10902;48.158;8.634;2023-03-03T21:05:18;52.28;;;31.60;;
21480;SDS011;10902;48.158;8.634;2023-03-03T21:08:09;53.60;;;32.33;;
21480;SDS011;10902;48.158;8.634;2023-03-03T21:10:35;52.17;;;32.95;;